Time;durP1;ratioP1;P1;durP2;ratioP2;P2;SDS_P1;SDS_P2;PMS_P1;PMS_P2;Temp;Humidity;BMP_temperature;BMP_pressure;BME280_temperature;BME280_humidity;BME280_pressure;Samples;Min_cycle;Max_cycle;Signal;HPM_P1;HPM_P2
2022/03/06 00:01:31;;;;;;;4.40;2.40;;;;;;;5.66;50.68;102342.56;4791919;29;119911;-83
2022/03/06 00:04:00;;;;;;;7.00;2.67;;;;;;;5.47;50.13;102315.56;4794551;29;119896;-83
2022/03/06 00:06:26;;;;;;;6.82;2.83;;;;;;;5.63;50.31;102334.38;4797136;29;120995;-82
2022/03/06 00:08:54;;;;;;;7.82;3.45;;;;;;;5.70;49.96;102342.63;4805654;29;121695;-84
2022/03/06 00:11:20;;;;;;;5.93;3.15;;;;;;;5.77;49.91;102365.25;4810783;29;121612;-83
2022/03/06 00:13:46;;;;;;;5.28;2.60;;;;;;;5.80;50.06;102363.69;4793315;29;119250;-83
2022/03/06 00:16:12;;;;;;;7.80;3.20;;;;;;;5.73;49.69;102355.47;4800973;29;120063;-80
2022/03/06 00:18:38;;;;;;;5.72;2.85;;;;;;;5.99;50.58;102392.69;4801266;29;119461;-79
2022/03/06 00:21:05;;;;;;;5.85;3.08;;;;;;;6.03;50.39;102394.28;4796389;29;119826;-81
2022/03/06 00:23:31;;;;;;;7.05;2.90;;;;;;;6.06;50.56;102393.50;4798543;29;120644;-82
2022/03/06 00:25:57;;;;;;;5.15;2.92;;;;;;;6.09;50.63;102391.97;4798056;29;121387;-84
2022/03/06 00:28:22;;;;;;;6.22;3.15;;;;;;;6.12;50.03;102385.78;4804422;29;123088;-81
2022/03/06 00:30:48;;;;;;;6.18;3.47;;;;;;;6.08;50.27;102385.75;4798478;29;120399;-80
2022/03/06 00:33:13;;;;;;;7.93;3.45;;;;;;;6.12;50.35;102378.38;4768486;29;120521;-81
2022/03/06 00:35:39;;;;;;;5.10;3.50;;;;;;;6.15;50.50;102385.81;4793388;29;119902;-81
2022/03/06 00:38:08;;;;;;;6.20;3.40;;;;;;;6.19;50.07;102385.06;4771937;29;120022;-82
2022/03/06 00:40:33;;;;;;;5.50;3.72;;;;;;;6.19;50.45;102376.88;4793568;29;121137;-80
2022/03/06 00:42:59;;;;;;;7.85;3.70;;;;;;;6.13;50.23;102374.50;4795607;29;119659;-81
2022/03/06 00:45:25;;;;;;;6.45;3.47;;;;;;;6.14;50.45;102380.72;4791580;29;119556;-80
2022/03/06 00:47:50;;;;;;;5.55;3.42;;;;;;;6.21;50.64;102377.28;4792807;29;121708;-80
2022/03/06 00:50:16;;;;;;;4.53;3.00;;;;;;;6.03;50.81;102350.69;4791651;29;120484;-81
2022/03/06 00:52:42;;;;;;;8.80;3.30;;;;;;;6.20;50.47;102381.97;4794901;29;121547;-81
2022/03/06 00:55:08;;;;;;;7.10;3.85;;;;;;;6.19;50.94;102383.13;4799632;29;119407;-80
2022/03/06 00:57:34;;;;;;;6.97;3.65;;;;;;;6.07;50.73;102367.84;4775963;29;121539;-79
2022/03/06 00:59:59;;;;;;;6.28;3.22;;;;;;;6.11;50.93;102376.03;4788795;29;121270;-80
2022/03/06 01:02:27;;;;;;;6.28;3.33;;;;;;;6.15;50.58;102380.38;4792359;29;120134;-80
2022/03/06 01:04:52;;;;;;;8.95;3.25;;;;;;;6.13;50.81;102385.38;4786790;29;120696;-80
2022/03/06 01:07:18;;;;;;;6.70;3.30;;;;;;;6.01;50.62;102369.34;4792336;29;121589;-80
2022/03/06 01:09:43;;;;;;;6.32;3.08;;;;;;;6.08;50.44;102383.03;4792188;29;121269;-81
2022/03/06 01:12:11;;;;;;;5.65;3.15;;;;;;;6.11;51.00;102390.44;4790936;29;120381;-80
2022/03/06 01:14:36;;;;;;;6.35;3.40;;;;;;;6.08;50.42;102384.97;4790697;29;119873;-79
2022/03/06 01:17:02;;;;;;;6.60;3.28;;;;;;;6.01;50.75;102380.25;4799243;29;120419;-81
2022/03/06 01:19:28;;;;;;;6.93;3.28;;;;;;;5.96;50.35;102377.88;4791767;29;123607;-79
2022/03/06 01:21:54;;;;;;;7.75;2.95;;;;;;;5.95;50.02;102380.97;4791578;29;120114;-80
2022/03/06 01:24:19;;;;;;;6.03;3.22;;;;;;;5.92;50.52;102374.34;4793554;29;119719;-79
2022/03/06 01:26:45;;;;;;;7.10;3.17;;;;;;;6.00;50.58;102386.06;4790081;29;120995;-79
2022/03/06 01:29:10;;;;;;;8.18;3.30;;;;;;;6.00;50.07;102383.34;4792487;29;119665;-80
2022/03/06 01:31:37;;;;;;;6.63;3.30;;;;;;;5.91;50.42;102374.69;4791883;29;121118;-81
2022/03/06 01:34:03;;;;;;;8.43;3.33;;;;;;;5.92;50.81;102387.97;4792703;29;120685;-81
2022/03/06 01:36:30;;;;;;;6.10;3.38;;;;;;;5.91;51.03;102380.94;4791630;29;123066;-80
2022/03/06 01:38:56;;;;;;;7.53;3.50;;;;;;;5.87;50.47;102377.38;4779502;29;119964;-81
2022/03/06 01:41:22;;;;;;;7.75;3.22;;;;;;;5.80;50.61;102380.03;4794942;29;123050;-81
2022/03/06 01:43:47;;;;;;;10.02;3.70;;;;;;;5.84;50.43;102386.28;4785349;29;119816;-81
2022/03/06 01:46:14;;;;;;;5.88;3.25;;;;;;;5.73;50.81;102369.09;4792710;29;119595;-80
2022/03/06 01:48:39;;;;;;;6.15;3.30;;;;;;;5.74;50.56;102381.53;4776273;29;121635;-80
2022/03/06 01:51:05;;;;;;;6.63;3.20;;;;;;;5.66;50.35;102369.78;4772735;29;120000;-80
2022/03/06 01:53:31;;;;;;;7.03;3.17;;;;;;;5.64;50.42;102374.03;4779581;29;120686;-81
2022/03/06 01:55:57;;;;;;;6.97;3.40;;;;;;;5.60;50.38;102376.75;4777829;29;121215;-80
2022/03/06 01:58:22;;;;;;;7.18;3.10;;;;;;;5.63;51.11;102380.66;4795356;29;120186;-80
2022/03/06 02:00:49;;;;;;;5.85;3.10;;;;;;;5.55;51.03;102377.09;4795395;29;119712;-80
2022/03/06 02:03:17;;;;;;;5.03;2.90;;;;;;;5.49;50.98;102370.41;4791275;29;119698;-80
2022/03/06 02:05:43;;;;;;;4.35;2.72;;;;;;;5.54;51.17;102379.03;4790720;29;120140;-80
2022/03/06 02:08:09;;;;;;;7.35;3.10;;;;;;;5.56;51.19;102381.38;4775606;29;123717;-79
2022/03/06 02:10:36;;;;;;;7.25;3.40;;;;;;;5.44;51.29;102363.38;4783436;29;120358;-80
2022/03/06 02:13:02;;;;;;;7.35;3.78;;;;;;;5.48;51.41;102375.09;4777188;29;121455;-80
2022/03/06 02:15:28;;;;;;;14.60;6.80;;;;;;;5.50;51.23;102378.22;4793986;29;121465;-79
2022/03/06 02:17:54;;;;;;;7.63;3.72;;;;;;;5.48;50.83;102371.59;4790016;29;120232;-80
2022/03/06 02:20:22;;;;;;;4.35;2.72;;;;;;;5.45;50.87;102364.94;4789879;29;125333;-80
2022/03/06 02:22:50;;;;;;;7.78;3.13;;;;;;;5.43;50.53;102369.94;4781228;29;121339;-79
2022/03/06 02:25:25;;;;;;;6.38;3.45;;;;;;;5.36;50.86;102372.63;4790340;29;120037;-79
2022/03/06 02:27:54;;;;;;;6.22;3.17;;;;;;;5.31;50.76;102364.00;4776877;29;121287;-80
2022/03/06 02:30:22;;;;;;;7.47;3.15;;;;;;;5.26;50.96;102367.84;4777439;29;119735;-80
2022/03/06 02:32:52;;;;;;;5.07;3.22;;;;;;;5.20;50.78;102366.59;4774532;29;122921;-80
2022/03/06 02:35:19;;;;;;;6.10;3.47;;;;;;;5.15;51.06;102367.72;4765529;29;122047;-80
2022/03/06 02:37:45;;;;;;;6.78;2.97;;;;;;;5.14;51.23;102368.09;4776603;29;119542;-79
2022/03/06 02:40:14;;;;;;;6.07;3.33;;;;;;;5.11;51.65;102368.84;4772490;29;122196;-80
2022/03/06 02:42:43;;;;;;;4.97;2.97;;;;;;;5.10;52.17;102370.78;4788040;29;121007;-79
2022/03/06 02:45:16;;;;;;;7.32;3.45;;;;;;;5.15;52.04;102364.22;4793834;29;120052;-79
2022/03/06 02:47:43;;;;;;;5.03;3.07;;;;;;;5.18;51.67;102371.63;4789158;29;120463;-79
2022/03/06 02:50:11;;;;;;;6.00;3.50;;;;;;;5.16;51.99;102366.56;4780884;29;119773;-79
2022/03/06 02:52:37;;;;;;;8.13;3.00;;;;;;;5.18;51.62;102377.06;4796608;29;122737;-79
2022/03/06 02:55:05;;;;;;;7.68;3.50;;;;;;;5.22;51.74;102370.53;4778309;29;120238;-79
2022/03/06 02:57:30;;;;;;;6.75;3.25;;;;;;;5.21;51.31;102371.69;4756540;29;1156109;-80
2022/03/06 02:59:56;;;;;;;8.57;4.15;;;;;;;5.29;51.87;102372.53;4790718;29;119798;-79
2022/03/06 03:02:24;;;;;;;8.55;3.90;;;;;;;5.29;51.84;102363.59;4782119;29;122327;-79
2022/03/06 03:04:50;;;;;;;8.57;3.70;;;;;;;5.38;51.20;102364.84;4799017;29;119743;-79
2022/03/06 03:07:15;;;;;;;6.32;3.28;;;;;;;5.39;51.53;102360.19;4795895;29;122697;-79
2022/03/06 03:09:41;;;;;;;6.65;3.58;;;;;;;5.34;51.56;102350.44;4796654;29;120378;-79
2022/03/06 03:12:07;;;;;;;5.22;3.05;;;;;;;5.46;51.33;102360.28;4779668;29;122006;-79
2022/03/06 03:14:33;;;;;;;6.65;3.05;;;;;;;5.45;51.50;102359.50;4778984;29;122797;-79
2022/03/06 03:17:08;;;;;;;5.35;3.33;;;;;;;5.44;51.29;102357.94;4789532;29;119850;-79
2022/03/06 03:19:36;;;;;;;6.85;3.63;;;;;;;5.44;51.55;102360.66;4798090;29;119558;-79
2022/03/06 03:22:03;;;;;;;7.32;3.60;;;;;;;5.40;51.57;102356.31;4789821;29;121689;-79
2022/03/06 03:24:29;;;;;;;5.28;3.03;;;;;;;5.43;51.37;102367.22;4796217;29;119473;-80
2022/03/06 03:26:54;;;;;;;7.00;3.38;;;;;;;5.37;51.53;102352.41;4769463;29;121947;-79
2022/03/06 03:29:20;;;;;;;7.90;3.50;;;;;;;5.42;51.35;102360.22;4793575;29;121594;-80
2022/03/06 03:31:46;;;;;;;5.82;3.40;;;;;;;5.39;51.87;102360.97;4764515;29;121619;-79
2022/03/06 03:34:12;;;;;;;5.97;3.53;;;;;;;5.43;51.83;102361.00;4778737;29;123325;-79
2022/03/06 03:36:42;;;;;;;7.43;3.72;;;;;;;5.47;52.02;102362.63;4795409;29;119696;-80
2022/03/06 03:39:07;;;;;;;5.35;3.30;;;;;;;5.43;51.78;102361.00;4794914;29;120657;-80
2022/03/06 03:41:33;;;;;;;5.32;3.63;;;;;;;5.47;51.81;102378.97;4797236;29;119810;-80
2022/03/06 03:44:03;;;;;;;7.00;3.60;;;;;;;5.43;51.49;102364.50;4793190;29;119749;-79
2022/03/06 03:46:29;;;;;;;5.97;3.42;;;;;;;5.33;51.89;102351.59;4790821;29;119381;-80
2022/03/06 03:48:54;;;;;;;5.85;3.38;;;;;;;5.29;52.04;102353.50;4780630;29;122613;-80
2022/03/06 03:51:20;;;;;;;7.00;3.45;;;;;;;5.28;51.73;102359.31;4797399;29;119768;-79
2022/03/06 03:53:46;;;;;;;9.00;3.63;;;;;;;5.16;51.70;102357.63;4794404;29;119773;-80
2022/03/06 03:56:11;;;;;;;6.10;3.67;;;;;;;5.07;51.92;102349.75;4792855;29;119680;-79
2022/03/06 03:58:37;;;;;;;8.20;3.60;;;;;;;5.08;52.03;102362.22;4793242;29;121862;-80
2022/03/06 04:01:06;;;;;;;5.15;3.28;;;;;;;4.97;52.08;102350.44;4771876;29;122467;-80
2022/03/06 04:03:31;;;;;;;7.43;3.88;;;;;;;4.93;51.63;102355.81;4792980;29;119765;-80
2022/03/06 04:05:57;;;;;;;7.05;3.40;;;;;;;4.91;52.25;102360.06;4797185;29;119918;-80
2022/03/06 04:08:23;;;;;;;5.25;3.10;;;;;;;4.82;52.41;102349.47;4778394;29;119790;-79
2022/03/06 04:10:48;;;;;;;8.73;3.83;;;;;;;4.83;52.41;102361.91;4782779;29;120222;-79
2022/03/06 04:13:14;;;;;;;6.85;4.00;;;;;;;4.79;52.21;102365.75;4793830;29;122728;-81
2022/03/06 04:15:40;;;;;;;6.18;3.28;;;;;;;4.74;52.90;102369.56;4796746;29;119748;-79
2022/03/06 04:18:05;;;;;;;7.18;3.70;;;;;;;4.70;52.85;102376.88;4793026;29;119512;-80
2022/03/06 04:20:31;;;;;;;9.10;3.70;;;;;;;4.61;51.93;102368.22;4793224;29;124604;-79
2022/03/06 04:22:58;;;;;;;8.38;4.20;;;;;;;4.61;52.72;102376.38;4765447;29;119532;-79
2022/03/06 04:25:24;;;;;;;8.38;4.25;;;;;;;4.54;52.16;102379.78;4780573;29;119966;-80
2022/03/06 04:27:49;;;;;;;6.97;4.40;;;;;;;4.49;52.82;102373.88;4794091;29;119833;-80
2022/03/06 04:30:15;;;;;;;7.63;4.70;;;;;;;4.52;53.24;102381.31;4796982;29;120111;-80
2022/03/06 04:32:40;;;;;;;11.52;4.85;;;;;;;4.49;52.91;102376.59;4796211;29;120923;-79
2022/03/06 04:35:06;;;;;;;8.95;4.47;;;;;;;4.53;53.44;102382.88;4796882;29;120840;-79
2022/03/06 04:37:32;;;;;;;10.52;5.53;;;;;;;4.52;53.14;102387.53;4797236;29;119352;-80
2022/03/06 04:39:58;;;;;;;13.70;5.68;;;;;;;4.45;52.93;102375.75;4797321;29;120033;-80
2022/03/06 04:42:24;;;;;;;8.38;4.80;;;;;;;4.42;53.30;102365.63;4794136;29;119443;-80
2022/03/06 04:44:49;;;;;;;11.98;5.60;;;;;;;4.37;53.28;102361.28;4797216;29;120067;-80
2022/03/06 04:47:15;;;;;;;10.85;4.88;;;;;;;4.51;53.44;102385.19;4781703;29;122707;-79
2022/03/06 04:49:41;;;;;;;10.05;4.70;;;;;;;4.51;53.35;102387.91;4795678;29;119414;-79
2022/03/06 04:52:06;;;;;;;10.30;4.95;;;;;;;4.43;52.84;102381.56;4796119;29;120131;-79
2022/03/06 04:54:33;;;;;;;9.20;4.57;;;;;;;4.48;53.11;102392.09;4764997;29;119581;-80
2022/03/06 04:57:00;;;;;;;8.93;4.60;;;;;;;4.44;53.01;102398.63;4797295;29;119356;-79
2022/03/06 04:59:26;;;;;;;8.68;4.47;;;;;;;4.37;52.48;102388.47;4794672;29;120193;-79
2022/03/06 05:01:53;;;;;;;8.52;4.75;;;;;;;4.33;52.63;102374.03;4790870;29;119550;-79
2022/03/06 05:04:19;;;;;;;7.47;4.70;;;;;;;4.34;53.11;102388.41;4791145;29;119636;-79
2022/03/06 05:06:44;;;;;;;11.50;5.03;;;;;;;4.18;52.76;102367.59;4778965;29;122638;-79
2022/03/06 05:09:10;;;;;;;8.27;4.53;;;;;;;4.26;52.97;102382.88;4763119;29;120912;-79
2022/03/06 05:11:36;;;;;;;6.50;4.43;;;;;;;4.18;53.53;102374.97;4796491;29;119437;-79
2022/03/06 05:14:01;;;;;;;7.72;4.50;;;;;;;4.21;53.56;102385.09;4783470;29;122556;-79
2022/03/06 05:16:27;;;;;;;7.57;4.40;;;;;;;4.18;53.27;102394.75;4779855;29;121296;-79
2022/03/06 05:18:52;;;;;;;8.15;4.68;;;;;;;4.10;53.10;102378.72;4795829;29;120251;-80
2022/03/06 05:21:18;;;;;;;8.73;4.40;;;;;;;4.12;53.25;102390.78;4776321;29;120857;-79
2022/03/06 05:23:44;;;;;;;8.95;5.00;;;;;;;4.10;53.49;102386.88;4777739;29;122542;-80
2022/03/06 05:26:09;;;;;;;11.30;5.80;;;;;;;4.06;53.63;102394.97;4793037;29;122455;-79
2022/03/06 05:28:36;;;;;;;10.32;5.40;;;;;;;4.00;52.95;102385.53;4779761;29;119981;-80
2022/03/06 05:31:01;;;;;;;10.32;4.93;;;;;;;3.99;53.35;102378.53;4776422;29;121847;-79
2022/03/06 05:33:27;;;;;;;8.60;4.80;;;;;;;4.02;53.50;102383.25;4791880;29;121932;-79
2022/03/06 05:35:53;;;;;;;10.05;4.85;;;;;;;3.95;54.07;102377.72;4800100;29;119634;-79
2022/03/06 05:38:18;;;;;;;9.02;5.28;;;;;;;4.03;53.74;102386.78;4792297;29;121097;-79
2022/03/06 05:40:44;;;;;;;10.20;4.95;;;;;;;3.95;54.16;102378.50;4763892;29;119551;-79
2022/03/06 05:43:09;;;;;;;9.32;5.18;;;;;;;3.90;53.59;102367.16;4793708;29;119521;-78
2022/03/06 05:45:35;;;;;;;10.23;5.28;;;;;;;3.95;53.71;102375.00;4778581;29;121540;-79
2022/03/06 05:48:00;;;;;;;9.90;5.30;;;;;;;4.00;53.09;102383.63;4786716;29;119901;-80
2022/03/06 05:50:26;;;;;;;9.18;4.70;;;;;;;3.88;53.41;102364.03;4794632;29;123161;-79
2022/03/06 05:52:51;;;;;;;14.38;5.13;;;;;;;3.93;53.42;102377.28;4794290;29;122681;-79
2022/03/06 05:55:17;;;;;;;11.25;4.90;;;;;;;3.95;53.75;102381.22;4792884;29;119702;-79
2022/03/06 05:57:44;;;;;;;9.48;4.80;;;;;;;3.92;52.91;102376.50;4794689;29;119589;-78
2022/03/06 06:00:11;;;;;;;7.47;4.97;;;;;;;3.84;53.81;102374.06;4789806;29;120399;-80
2022/03/06 06:02:40;;;;;;;8.35;4.82;;;;;;;3.87;53.84;102381.47;4787376;29;121961;-79
2022/03/06 06:05:08;;;;;;;10.30;4.95;;;;;;;3.87;54.06;102386.91;4782674;29;122597;-79
2022/03/06 06:07:38;;;;;;;9.05;4.85;;;;;;;3.87;53.69;102384.97;4791433;29;119487;-79
2022/03/06 06:10:04;;;;;;;7.78;4.15;;;;;;;3.85;53.71;102378.34;4779860;29;119813;-79
2022/03/06 06:12:30;;;;;;;9.38;4.68;;;;;;;3.83;53.18;102391.47;4795030;29;120257;-79
2022/03/06 06:14:56;;;;;;;8.50;4.70;;;;;;;3.76;53.60;102380.47;4794107;29;119411;-79
2022/03/06 06:17:22;;;;;;;11.52;5.00;;;;;;;3.78;54.08;102372.75;4776996;29;120318;-79
2022/03/06 06:19:47;;;;;;;9.25;4.88;;;;;;;3.87;54.48;102378.75;4795851;29;120442;-79
2022/03/06 06:22:13;;;;;;;6.97;4.47;;;;;;;3.93;53.82;102380.00;4792982;29;119652;-79
2022/03/06 06:24:39;;;;;;;7.90;4.85;;;;;;;3.96;53.65;102396.34;4792370;29;119666;-79
2022/03/06 06:27:05;;;;;;;9.23;5.10;;;;;;;4.01;54.06;102390.59;4795779;29;120236;-79
2022/03/06 06:29:30;;;;;;;7.72;4.68;;;;;;;4.00;53.73;102372.75;4793055;29;120459;-79
2022/03/06 06:31:56;;;;;;;8.20;4.85;;;;;;;4.04;53.80;102383.69;4789073;29;122514;-79
2022/03/06 06:34:22;;;;;;;6.90;5.13;;;;;;;4.16;53.64;102391.63;4791765;29;120162;-79
2022/03/06 06:36:47;;;;;;;10.65;5.18;;;;;;;4.20;54.63;102389.75;4777005;29;122060;-79
2022/03/06 06:39:16;;;;;;;9.93;5.20;;;;;;;4.30;54.26;102394.59;4792653;29;122943;-80
2022/03/06 06:41:42;;;;;;;9.23;5.15;;;;;;;4.35;54.46;102384.53;4797947;29;119760;-80
2022/03/06 06:44:09;;;;;;;8.23;4.80;;;;;;;4.48;54.41;102402.97;4793126;29;122732;-79
2022/03/06 06:46:35;;;;;;;8.63;5.28;;;;;;;4.54;53.62;102401.53;4792811;29;120465;-79
2022/03/06 06:49:03;;;;;;;8.32;5.40;;;;;;;4.60;54.18;102404.72;4792143;29;119565;-78
2022/03/06 06:51:30;;;;;;;8.32;5.78;;;;;;;4.70;54.17;102420.38;4779424;29;121266;-79
2022/03/06 06:53:56;;;;;;;10.88;6.32;;;;;;;4.78;53.85;102418.56;4779990;29;120308;-80
2022/03/06 06:56:21;;;;;;;8.32;5.78;;;;;;;4.82;54.26;102408.50;4796291;29;119418;-79
2022/03/06 06:58:47;;;;;;;11.38;6.05;;;;;;;4.91;54.63;102401.63;4791865;29;120182;-80
2022/03/06 07:01:15;;;;;;;9.88;6.55;;;;;;;5.00;54.73;102411.47;4783972;29;119316;-79
2022/03/06 07:03:40;;;;;;;14.05;9.27;;;;;;;5.09;53.68;102407.28;4794289;29;119800;-80
2022/03/06 07:06:09;;;;;;;10.27;6.72;;;;;;;5.10;54.08;102399.91;4776385;29;119575;-80
2022/03/06 07:08:34;;;;;;;11.82;5.72;;;;;;;5.24;53.95;102403.59;4781966;29;122050;-80
2022/03/06 07:11:00;;;;;;;10.02;5.60;;;;;;;5.26;53.73;102397.78;4797036;29;121107;-80
2022/03/06 07:13:25;;;;;;;8.38;5.32;;;;;;;5.39;54.20;102393.63;4778609;29;120892;-80
2022/03/06 07:15:54;;;;;;;10.68;5.90;;;;;;;5.48;54.14;102402.31;4758440;29;122026;-80
2022/03/06 07:18:22;;;;;;;11.45;6.10;;;;;;;5.46;54.41;102396.44;4780897;29;123011;-80
2022/03/06 07:20:47;;;;;;;9.90;5.38;;;;;;;5.52;54.27;102384.06;4792649;29;119454;-79
2022/03/06 07:23:14;;;;;;;9.25;5.30;;;;;;;5.65;54.43;102397.38;4793766;29;119933;-78
2022/03/06 07:25:40;;;;;;;10.43;5.95;;;;;;;5.72;54.36;102395.53;4794014;29;119474;-79
2022/03/06 07:28:06;;;;;;;9.77;5.60;;;;;;;5.85;54.25;102398.75;4794298;29;121734;-80
2022/03/06 07:30:31;;;;;;;8.48;5.22;;;;;;;5.95;53.38;102395.38;4776723;29;123426;-80
2022/03/06 07:32:57;;;;;;;8.90;5.13;;;;;;;6.02;53.29;102392.72;4761619;29;120798;-80
2022/03/06 07:35:23;;;;;;;9.30;5.63;;;;;;;6.02;52.79;102389.97;4780775;29;120044;-79
2022/03/06 07:37:49;;;;;;;8.32;5.10;;;;;;;6.17;52.85;102401.78;4797083;29;120278;-79
2022/03/06 07:40:17;;;;;;;8.00;4.60;;;;;;;6.27;53.02;102400.28;4793755;29;119712;-79
2022/03/06 07:42:43;;;;;;;7.72;4.32;;;;;;;6.35;53.06;102399.16;4795996;29;119387;-80
2022/03/06 07:45:09;;;;;;;8.27;4.28;;;;;;;6.41;52.87;102403.13;4783811;29;122801;-79
2022/03/06 07:47:35;;;;;;;8.25;4.25;;;;;;;6.43;52.54;102398.06;4795091;29;120700;-79
2022/03/06 07:50:01;;;;;;;8.05;4.30;;;;;;;6.46;52.86;102400.03;4778380;29;122744;-80
2022/03/06 07:52:26;;;;;;;9.32;4.70;;;;;;;6.55;52.65;102403.19;4796481;29;119850;-79
2022/03/06 07:54:52;;;;;;;9.07;4.25;;;;;;;6.67;52.12;102408.34;4794986;29;122945;-80
2022/03/06 07:57:18;;;;;;;8.23;3.55;;;;;;;6.72;51.41;102407.97;4791209;29;120773;-79
2022/03/06 07:59:43;;;;;;;9.07;3.97;;;;;;;6.78;51.31;102413.84;4794515;29;119599;-79
2022/03/06 08:02:09;;;;;;;7.38;3.85;;;;;;;6.85;50.86;102404.91;4779661;29;119436;-78
2022/03/06 08:04:35;;;;;;;9.25;4.90;;;;;;;6.94;52.02;102414.31;4793466;29;122635;-78
2022/03/06 08:07:00;;;;;;;11.23;4.57;;;;;;;6.93;51.09;102401.84;4799599;29;119418;-78
2022/03/06 08:09:26;;;;;;;7.82;4.40;;;;;;;7.01;50.69;102405.38;4796361;29;123738;-79
2022/03/06 08:11:52;;;;;;;9.52;4.50;;;;;;;7.12;50.56;102422.59;4795512;29;120216;-79
2022/03/06 08:14:18;;;;;;;7.00;3.95;;;;;;;7.18;50.07;102423.78;4795412;29;121220;-80
2022/03/06 08:16:43;;;;;;;6.53;3.63;;;;;;;7.27;49.83;102424.19;4798370;29;121357;-80
2022/03/06 08:19:09;;;;;;;11.27;5.72;;;;;;;7.33;49.75;102430.88;4763152;29;119798;-79
2022/03/06 08:21:35;;;;;;;6.05;3.75;;;;;;;7.46;50.51;102430.50;4780742;29;119581;-80
2022/03/06 08:24:00;;;;;;;6.85;3.35;;;;;;;7.54;49.84;102434.81;4795799;29;120000;-79
2022/03/06 08:26:26;;;;;;;5.18;3.15;;;;;;;7.60;50.04;102434.06;4795588;29;119554;-79
2022/03/06 08:28:52;;;;;;;5.72;2.75;;;;;;;7.76;49.90;102432.91;4798530;29;119896;-79
2022/03/06 08:31:18;;;;;;;7.22;3.17;;;;;;;7.83;49.37;102436.44;4795636;29;119695;-79
2022/03/06 08:33:44;;;;;;;5.40;2.90;;;;;;;7.91;48.08;102432.53;4797562;29;121586;-80
2022/03/06 08:36:09;;;;;;;7.03;2.80;;;;;;;8.04;48.11;102432.13;4794772;29;120536;-80
2022/03/06 08:38:35;;;;;;;6.70;2.70;;;;;;;8.06;47.56;102425.13;4797258;29;120329;-80
2022/03/06 08:41:02;;;;;;;8.25;3.25;;;;;;;8.13;47.68;102427.88;4796375;29;120846;-80
2022/03/06 08:43:28;;;;;;;6.00;3.20;;;;;;;8.30;48.20;102438.03;4790530;29;123517;-80
2022/03/06 08:45:53;;;;;;;8.40;3.30;;;;;;;8.39;47.46;102440.38;4778917;29;121154;-80
2022/03/06 08:48:21;;;;;;;5.13;2.67;;;;;;;8.53;47.17;102434.91;4796550;29;119649;-80
2022/03/06 08:50:49;;;;;;;5.93;2.90;;;;;;;8.60;47.21;102423.16;4786047;29;123389;-80
2022/03/06 08:53:18;;;;;;;5.78;2.72;;;;;;;8.80;48.08;102435.22;4794667;29;119386;-80
2022/03/06 08:55:44;;;;;;;5.18;2.55;;;;;;;8.88;46.97;102414.09;4791851;29;120347;-80
2022/03/06 08:58:10;;;;;;;6.40;2.97;;;;;;;8.99;45.79;102425.78;4781328;29;121218;-80
2022/03/06 09:00:36;;;;;;;7.22;2.67;;;;;;;8.98;46.98;102417.94;4779186;29;122451;-80
2022/03/06 09:03:01;;;;;;;6.35;2.67;;;;;;;9.06;46.54;102424.97;4792723;29;119851;-80
2022/03/06 09:05:27;;;;;;;6.30;2.85;;;;;;;9.10;46.02;102431.22;4796022;29;119595;-80
2022/03/06 09:07:53;;;;;;;4.93;2.83;;;;;;;9.10;45.03;102417.53;4793142;29;120065;-80
2022/03/06 09:10:18;;;;;;;5.93;2.40;;;;;;;9.20;44.81;102441.31;4798617;29;121898;-80
2022/03/06 09:12:44;;;;;;;7.30;2.88;;;;;;;9.19;44.93;102437.81;4780021;29;122112;-80
2022/03/06 09:15:11;;;;;;;6.10;2.58;;;;;;;9.25;44.28;102434.69;4766437;29;122636;-80
2022/03/06 09:17:37;;;;;;;4.95;2.63;;;;;;;9.23;45.00;102424.13;4764194;29;121511;-79
2022/03/06 09:20:05;;;;;;;5.55;2.92;;;;;;;9.22;45.48;102417.84;4764958;29;121689;-80
2022/03/06 09:22:31;;;;;;;6.13;2.90;;;;;;;9.29;45.17;102419.00;4762548;29;122705;-80
2022/03/06 09:24:56;;;;;;;6.43;2.90;;;;;;;9.45;44.84;102433.00;4796389;29;120095;-80
2022/03/06 09:27:22;;;;;;;7.55;2.95;;;;;;;9.46;44.80;102429.06;4778964;29;121066;-80
2022/03/06 09:29:47;;;;;;;7.22;3.05;;;;;;;9.53;45.40;102426.31;4796216;29;121214;-79
2022/03/06 09:32:13;;;;;;;6.18;3.22;;;;;;;9.59;45.43;102424.69;4784997;29;121114;-80
2022/03/06 09:34:39;;;;;;;5.88;3.38;;;;;;;9.55;44.54;102426.69;4793258;29;120179;-79
2022/03/06 09:37:04;;;;;;;6.75;3.30;;;;;;;9.65;45.15;102436.00;4811602;29;120786;-80
2022/03/06 09:39:30;;;;;;;8.38;3.30;;;;;;;9.64;44.17;102421.53;4796366;29;119423;-80
2022/03/06 09:41:59;;;;;;;6.90;3.08;;;;;;;9.68;45.11;102424.25;4781562;29;120033;-80
2022/03/06 09:44:26;;;;;;;7.45;3.13;;;;;;;9.75;44.31;102435.97;4782838;29;121517;-80
2022/03/06 09:46:54;;;;;;;5.75;3.05;;;;;;;9.78;45.12;102439.84;4785157;29;121866;-80
2022/03/06 09:49:20;;;;;;;6.03;3.33;;;;;;;9.75;44.92;102426.97;4783971;29;122989;-81
2022/03/06 09:51:46;;;;;;;7.70;3.85;;;;;;;9.78;44.68;102432.41;4781327;29;119420;-80
2022/03/06 09:54:12;;;;;;;5.82;3.22;;;;;;;9.87;46.17;102447.63;4799938;29;121618;-81
2022/03/06 09:56:39;;;;;;;6.50;3.63;;;;;;;9.83;45.35;102437.47;4798620;29;119912;-80
2022/03/06 09:59:05;;;;;;;7.82;3.30;;;;;;;9.87;45.10;102440.19;4793813;29;119837;-80
2022/03/06 10:01:32;;;;;;;6.38;3.70;;;;;;;9.87;45.43;102437.44;4799310;29;124955;-80
2022/03/06 10:03:58;;;;;;;11.10;4.05;;;;;;;9.89;45.67;102428.81;4780099;29;120566;-79
2022/03/06 10:06:26;;;;;;;11.35;4.70;;;;;;;9.94;46.13;102426.44;4794060;29;121046;-79
2022/03/06 10:09:04;;;;;;;7.50;3.88;;;;;;;9.97;46.09;102422.09;4776434;29;121142;-79
2022/03/06 10:11:30;;;;;;;8.23;3.95;;;;;;;9.99;46.45;102433.44;4790742;29;120647;-79
2022/03/06 10:13:56;;;;;;;7.82;4.10;;;;;;;9.91;45.79;102420.94;4796130;29;121413;-79
2022/03/06 10:16:22;;;;;;;9.52;4.47;;;;;;;9.91;46.52;102420.94;4794711;29;121249;-80
2022/03/06 10:18:49;;;;;;;8.75;4.55;;;;;;;10.00;46.80;102421.28;4786787;29;120237;-79
2022/03/06 10:21:22;;;;;;;8.80;3.88;;;;;;;10.03;45.67;102417.75;4798663;29;119694;-81
2022/03/06 10:23:50;;;;;;;7.32;4.00;;;;;;;9.98;46.44;102412.69;4797279;29;120844;-81
2022/03/06 10:26:18;;;;;;;9.02;4.32;;;;;;;9.90;46.54;102405.69;4798964;29;119783;-81
2022/03/06 10:28:59;;;;;;;9.95;4.85;;;;;;;9.94;46.79;102422.91;4796201;29;120996;-81
2022/03/06 10:31:28;;;;;;;10.13;4.70;;;;;;;9.90;47.31;102413.91;4800571;29;119711;-81
2022/03/06 10:34:04;;;;;;;10.68;4.43;;;;;;;9.87;47.90;102411.97;4800849;29;119802;-81
2022/03/06 10:36:45;;;;;;;10.52;4.60;;;;;;;9.84;47.84;102417.09;4798818;29;122968;-81
2022/03/06 10:39:17;;;;;;;9.32;4.50;;;;;;;9.83;49.00;102410.06;4803673;29;120176;-81
2022/03/06 10:41:51;;;;;;;9.48;5.15;;;;;;;9.96;47.99;102415.06;4799624;29;120952;-82
2022/03/06 10:44:19;;;;;;;11.65;5.18;;;;;;;10.02;48.54;102418.94;4800867;29;120425;-81
2022/03/06 10:47:04;;;;;;;9.55;4.65;;;;;;;10.02;48.26;102416.97;4799124;29;119790;-81
2022/03/06 10:49:32;;;;;;;12.55;5.00;;;;;;;10.05;48.19;102420.84;4797010;29;121333;-80
2022/03/06 10:52:13;;;;;;;11.45;5.20;;;;;;;10.01;48.32;102415.41;4766310;29;119476;-81
2022/03/06 10:55:06;;;;;;;9.70;5.13;;;;;;;10.09;48.41;102416.91;4789981;29;121876;-81
2022/03/06 10:57:32;;;;;;;12.68;5.20;;;;;;;10.03;48.73;102415.00;4797247;29;119410;-81
2022/03/06 10:59:59;;;;;;;10.35;5.47;;;;;;;10.07;48.23;102418.50;4795104;29;120172;-81
2022/03/06 11:02:27;;;;;;;9.88;5.70;;;;;;;10.11;48.42;102409.03;4797112;29;121056;-80
2022/03/06 11:04:56;;;;;;;10.35;5.30;;;;;;;10.05;48.98;102393.44;4795597;29;119849;-81
2022/03/06 11:07:26;;;;;;;8.73;4.93;;;;;;;10.13;49.50;102400.41;4794771;29;121035;-81
2022/03/06 11:09:53;;;;;;;9.88;5.15;;;;;;;10.28;49.07;102421.06;4790908;29;122467;-81
2022/03/06 11:12:20;;;;;;;10.00;4.68;;;;;;;10.24;49.57;102403.88;4782335;29;119771;-81
2022/03/06 11:14:47;;;;;;;11.38;4.97;;;;;;;10.33;48.49;102406.91;4783274;29;122316;-81
2022/03/06 11:17:13;;;;;;;11.25;5.10;;;;;;;10.38;49.28;102422.16;4797588;29;123287;-81
2022/03/06 11:19:38;;;;;;;9.05;4.80;;;;;;;10.37;49.75;102407.66;4796535;29;120783;-81
2022/03/06 11:22:19;;;;;;;10.40;4.80;;;;;;;10.37;49.13;102407.66;4784879;29;122119;-81